createdAt,value
2018-01-25T00:00:33.713Z,62.80
2018-01-25T00:03:01.149Z,63.00
2018-01-25T00:05:28.610Z,63.10
2018-01-25T00:07:56.065Z,63.10
2018-01-25T00:10:23.509Z,62.90
2018-01-25T00:12:50.978Z,63.10
2018-01-25T00:15:18.433Z,63.20
2018-01-25T00:17:45.889Z,63.20
2018-01-25T00:20:14.116Z,63.20
2018-01-25T00:22:41.573Z,63.20
2018-01-25T00:25:09.017Z,63.30
2018-01-25T00:27:36.485Z,63.30
2018-01-25T00:30:03.965Z,63.40
2018-01-25T00:32:31.417Z,63.40
2018-01-25T00:34:58.910Z,63.40
2018-01-25T00:37:26.361Z,63.40
2018-01-25T00:39:54.582Z,63.40
2018-01-25T00:42:22.051Z,63.40
2018-01-25T00:44:49.535Z,63.40
2018-01-25T00:47:16.973Z,63.40
2018-01-25T00:49:44.451Z,63.50
2018-01-25T00:52:11.885Z,63.40
2018-01-25T00:54:39.344Z,63.60
2018-01-25T00:57:06.789Z,63.70
2018-01-25T00:59:34.249Z,63.60
2018-01-25T01:02:01.697Z,64.30
2018-01-25T01:04:29.163Z,63.70
2018-01-25T01:06:56.606Z,63.80
2018-01-25T01:09:24.091Z,63.70
2018-01-25T01:11:51.531Z,63.70
2018-01-25T01:14:18.989Z,63.70
2018-01-25T01:16:46.441Z,63.70
2018-01-25T01:19:13.900Z,63.70
2018-01-25T01:21:41.367Z,63.90
2018-01-25T01:24:08.834Z,64.00
2018-01-25T01:26:36.295Z,63.90
2018-01-25T01:29:03.747Z,63.90
2018-01-25T01:31:31.202Z,63.90
2018-01-25T01:33:58.650Z,63.90
2018-01-25T01:36:26.108Z,63.90
2018-01-25T01:38:53.552Z,63.80
2018-01-25T01:41:21.009Z,64.00
2018-01-25T01:43:48.453Z,64.10
2018-01-25T01:46:15.912Z,64.00
2018-01-25T01:48:44.151Z,64.00
2018-01-25T01:51:11.605Z,63.90
2018-01-25T01:53:39.823Z,64.20
2018-01-25T01:56:07.281Z,64.20
2018-01-25T01:58:34.741Z,64.30
2018-01-25T02:01:02.201Z,64.30
2018-01-25T02:03:29.644Z,64.30
2018-01-25T02:05:57.101Z,64.20
2018-01-25T02:08:24.569Z,64.20
2018-01-25T02:10:52.031Z,64.20
2018-01-25T02:13:19.494Z,64.30
2018-01-25T02:15:46.945Z,64.20
2018-01-25T02:18:14.416Z,64.80
2018-01-25T02:20:41.862Z,64.20
2018-01-25T02:23:09.327Z,64.40
2018-01-25T02:25:36.784Z,64.40
2018-01-25T02:28:04.247Z,64.40
2018-01-25T02:30:31.701Z,64.40
2018-01-25T02:32:59.164Z,64.40
2018-01-25T02:35:27.408Z,64.30
2018-01-25T02:37:54.867Z,64.30
2018-01-25T02:40:23.081Z,64.40
2018-01-25T02:42:50.543Z,64.40
2018-01-25T02:45:17.997Z,64.40
2018-01-25T02:47:45.467Z,64.40
2018-01-25T02:50:12.913Z,64.30
2018-01-25T02:52:40.369Z,64.40
2018-01-25T02:55:07.853Z,64.40
2018-01-25T02:57:36.089Z,64.70
2018-01-25T03:00:03.545Z,64.60
2018-01-25T03:02:30.991Z,64.50
2018-01-25T03:04:58.449Z,64.60
2018-01-25T03:07:25.921Z,64.60
2018-01-25T03:09:53.380Z,64.60
2018-01-25T03:12:20.839Z,64.60
2018-01-25T03:14:48.292Z,64.60
2018-01-25T03:17:15.736Z,64.50
2018-01-25T03:19:43.189Z,64.60
2018-01-25T03:22:10.662Z,64.50
2018-01-25T03:24:38.117Z,64.50
2018-01-25T03:27:05.574Z,64.60
2018-01-25T03:29:33.041Z,64.70
2018-01-25T03:32:00.502Z,64.60
2018-01-25T03:34:27.958Z,64.80
2018-01-25T03:36:55.437Z,64.80
2018-01-25T03:39:23.718Z,64.50
2018-01-25T03:41:51.960Z,64.50
2018-01-25T03:44:19.420Z,64.50
2018-01-25T03:46:46.873Z,64.60
2018-01-25T03:49:14.345Z,64.70
2018-01-25T03:51:41.789Z,64.70
2018-01-25T03:54:09.244Z,64.60
2018-01-25T03:56:36.729Z,64.80
2018-01-25T03:59:04.173Z,64.70
2018-01-25T04:01:31.633Z,64.60
2018-01-25T04:03:59.091Z,64.70
2018-01-25T04:06:26.541Z,64.60
2018-01-25T04:08:54.012Z,64.70
2018-01-25T04:11:21.456Z,65.40
2018-01-25T04:13:48.933Z,64.60
2018-01-25T04:16:16.393Z,64.50
2018-01-25T04:18:44.633Z,64.60
2018-01-25T04:21:12.100Z,64.60
2018-01-25T04:23:39.550Z,64.70
2018-01-25T04:26:07.017Z,64.70
2018-01-25T04:28:34.477Z,64.60
2018-01-25T04:31:01.941Z,64.60
2018-01-25T04:33:29.385Z,64.70
2018-01-25T04:35:56.859Z,64.70
2018-01-25T04:38:24.317Z,64.80
2018-01-25T04:40:51.779Z,64.80
2018-01-25T04:43:19.221Z,64.80
2018-01-25T04:45:46.690Z,64.90
2018-01-25T04:48:14.141Z,64.90
2018-01-25T04:50:41.620Z,64.80
2018-01-25T04:53:09.096Z,64.80
2018-01-25T04:55:37.319Z,64.80
2018-01-25T04:58:04.773Z,64.80
2018-01-25T05:00:32.230Z,64.90
2018-01-25T05:02:59.693Z,64.70
2018-01-25T05:05:27.150Z,64.90
2018-01-25T05:07:54.608Z,64.90
2018-01-25T05:10:22.061Z,64.80
2018-01-25T05:12:49.794Z,64.80
2018-01-25T05:15:17.986Z,64.80
2018-01-25T05:17:49.245Z,64.70
2018-01-25T05:20:16.742Z,64.70
2018-01-25T05:22:44.994Z,64.70
2018-01-25T05:25:12.462Z,64.70
2018-01-25T05:27:39.912Z,64.70
2018-01-25T05:30:07.381Z,64.60
2018-01-25T05:32:34.880Z,64.60
2018-01-25T05:35:02.338Z,64.70
2018-01-25T05:37:30.557Z,65.00
2018-01-25T05:39:58.006Z,64.80
2018-01-25T05:42:25.485Z,64.80
2018-01-25T05:44:53.709Z,65.00
2018-01-25T05:47:21.162Z,64.70
2018-01-25T05:49:48.616Z,64.80
2018-01-25T05:52:16.077Z,64.80
2018-01-25T05:54:43.533Z,64.70
2018-01-25T05:57:10.994Z,64.70
2018-01-25T05:59:38.448Z,64.70
2018-01-25T06:02:05.902Z,64.70
2018-01-25T06:04:33.362Z,64.60
2018-01-25T06:07:00.821Z,64.70
2018-01-25T06:09:28.282Z,64.80
2018-01-25T06:11:55.752Z,64.80
2018-01-25T06:14:23.977Z,64.80
2018-01-25T06:16:52.185Z,64.80
2018-01-25T06:19:19.641Z,64.70
2018-01-25T06:21:47.097Z,64.80
2018-01-25T06:24:14.562Z,64.90
2018-01-25T06:26:42.060Z,65.00
2018-01-25T06:29:09.489Z,65.00
2018-01-25T06:31:36.939Z,64.90
2018-01-25T06:34:04.389Z,64.90
2018-01-25T06:36:31.864Z,64.90
2018-01-25T06:38:59.344Z,64.80
2018-01-25T06:41:26.801Z,64.90
2018-01-25T06:43:54.261Z,64.80
2018-01-25T06:46:21.721Z,64.80
2018-01-25T06:48:49.168Z,64.80
2018-01-25T06:51:16.634Z,64.80
2018-01-25T06:53:44.101Z,64.70
2018-01-25T06:56:12.349Z,65.00
2018-01-25T06:58:39.792Z,64.80
2018-01-25T07:01:07.259Z,64.90
2018-01-25T07:03:34.709Z,65.60
2018-01-25T07:06:02.161Z,64.90
2018-01-25T07:08:29.628Z,65.00
2018-01-25T07:10:57.088Z,65.10
2018-01-25T07:13:24.546Z,65.00
2018-01-25T07:15:52.005Z,65.10
2018-01-25T07:18:19.481Z,65.00
2018-01-25T07:20:46.952Z,65.10
2018-01-25T07:23:14.392Z,65.10
2018-01-25T07:25:41.863Z,65.10
2018-01-25T07:28:09.311Z,64.90
2018-01-25T07:30:36.757Z,65.10
2018-01-25T07:33:04.207Z,65.90
2018-01-25T07:35:31.652Z,65.00
2018-01-25T07:37:59.125Z,65.00
2018-01-25T07:40:27.024Z,64.90
2018-01-25T07:42:55.261Z,64.90
2018-01-25T07:45:22.720Z,64.90
2018-01-25T07:47:50.947Z,64.90
2018-01-25T07:50:19.161Z,64.80
2018-01-25T07:52:46.617Z,64.80
2018-01-25T07:55:14.061Z,64.90
2018-01-25T07:57:47.195Z,64.80
2018-01-25T08:00:14.641Z,64.80
2018-01-25T08:02:42.150Z,64.80
2018-01-25T08:05:10.373Z,64.80
2018-01-25T08:07:37.836Z,64.80
2018-01-25T08:10:05.330Z,64.70
2018-01-25T08:12:33.554Z,64.70
2018-01-25T08:15:01.005Z,64.70
2018-01-25T08:17:28.454Z,64.50
2018-01-25T08:19:55.911Z,64.60
2018-01-25T08:22:23.370Z,64.60
2018-01-25T08:24:50.825Z,64.60
2018-01-25T08:27:18.265Z,64.50
2018-01-25T08:29:45.733Z,64.60
2018-01-25T08:32:13.196Z,64.30
2018-01-25T08:34:40.653Z,64.10
2018-01-25T08:37:08.114Z,64.00
2018-01-25T08:39:36.333Z,63.90
2018-01-25T08:42:03.804Z,63.90
2018-01-25T08:44:32.033Z,63.90
2018-01-25T08:46:59.496Z,63.80
2018-01-25T08:49:26.953Z,63.80
2018-01-25T08:51:54.412Z,63.50
2018-01-25T08:54:21.873Z,63.50
2018-01-25T08:56:49.322Z,63.30
2018-01-25T08:59:16.772Z,63.30
2018-01-25T09:01:44.241Z,63.00
2018-01-25T09:04:11.706Z,62.90
2018-01-25T09:06:39.149Z,62.80
2018-01-25T09:09:06.605Z,62.60
2018-01-25T09:11:34.052Z,63.20
2018-01-25T09:14:01.512Z,62.40
2018-01-25T09:16:28.974Z,62.60
2018-01-25T09:18:56.430Z,62.50
2018-01-25T09:21:23.905Z,62.60
2018-01-25T09:23:51.359Z,62.60
2018-01-25T09:26:18.844Z,62.50
2018-01-25T09:28:46.264Z,62.50
2018-01-25T09:31:13.733Z,62.20
2018-01-25T09:33:41.194Z,62.20
2018-01-25T09:36:09.413Z,62.60
2018-01-25T09:38:36.878Z,62.60
2018-01-25T09:41:05.107Z,62.50
2018-01-25T09:43:32.561Z,62.50
2018-01-25T09:46:00.012Z,62.70
2018-01-25T09:48:27.484Z,62.90
2018-01-25T09:50:54.938Z,62.90
2018-01-25T09:53:22.401Z,63.10
2018-01-25T09:55:49.853Z,62.80
2018-01-25T09:58:17.309Z,62.80
2018-01-25T10:00:44.765Z,63.10
2018-01-25T10:03:12.217Z,62.90
2018-01-25T10:05:39.660Z,62.90
2018-01-25T10:08:07.124Z,62.90
2018-01-25T10:10:35.142Z,62.70
2018-01-25T10:13:02.612Z,62.70
2018-01-25T10:15:30.054Z,62.70
2018-01-25T10:17:58.328Z,62.40
2018-01-25T10:20:25.741Z,62.40
2018-01-25T10:22:53.209Z,62.30
2018-01-25T10:25:20.661Z,62.30
2018-01-25T10:27:48.133Z,62.20
2018-01-25T10:30:15.598Z,62.10
2018-01-25T10:32:43.074Z,62.00
2018-01-25T10:35:11.309Z,62.20
2018-01-25T10:37:38.762Z,62.10
2018-01-25T10:40:06.228Z,62.10
2018-01-25T10:42:33.685Z,62.00
2018-01-25T10:45:01.154Z,62.20
2018-01-25T10:47:29.404Z,62.10
2018-01-25T10:49:56.858Z,62.10
2018-01-25T10:52:24.306Z,61.80
2018-01-25T10:54:51.776Z,61.70
2018-01-25T10:57:19.244Z,61.60
2018-01-25T10:59:46.706Z,61.20
2018-01-25T11:02:14.153Z,61.10
2018-01-25T11:04:41.617Z,61.10
2018-01-25T11:07:09.122Z,61.20
2018-01-25T11:09:36.525Z,60.90
2018-01-25T11:12:03.985Z,60.90
2018-01-25T11:14:31.454Z,60.80
2018-01-25T11:16:58.918Z,60.90
2018-01-25T11:19:26.378Z,60.70
2018-01-25T11:21:53.830Z,60.20
2018-01-25T11:24:21.314Z,60.10
2018-01-25T11:26:49.533Z,59.80
2018-01-25T11:29:17.004Z,59.70
2018-01-25T11:31:44.445Z,59.60
2018-01-25T11:34:11.925Z,59.80
2018-01-25T11:36:39.376Z,60.00
2018-01-25T11:39:06.826Z,59.90
2018-01-25T11:41:34.293Z,60.00
2018-01-25T11:44:01.746Z,59.90
2018-01-25T11:46:29.205Z,59.90
2018-01-25T11:48:56.685Z,60.60
2018-01-25T11:51:24.136Z,59.90
2018-01-25T11:53:51.598Z,61.00
2018-01-25T11:56:19.054Z,60.70
2018-01-25T11:58:46.505Z,61.00
2018-01-25T12:01:14.753Z,61.40
2018-01-25T12:03:42.205Z,61.40
2018-01-25T12:06:09.658Z,61.50
2018-01-25T12:08:37.117Z,61.40
2018-01-25T12:11:04.577Z,61.40
2018-01-25T12:13:32.029Z,61.20
2018-01-25T12:15:59.485Z,61.40
2018-01-25T12:18:26.946Z,61.50
2018-01-25T12:20:54.421Z,61.30
2018-01-25T12:23:21.868Z,61.20
2018-01-25T12:25:49.317Z,60.80
2018-01-25T12:28:16.781Z,60.50
2018-01-25T12:30:44.240Z,59.90
2018-01-25T12:33:11.717Z,59.20
2018-01-25T12:35:39.165Z,58.80
2018-01-25T12:38:06.625Z,58.40
2018-01-25T12:40:34.077Z,58.60
2018-01-25T12:43:01.537Z,58.10
2018-01-25T12:45:29.004Z,57.90
2018-01-25T12:47:56.462Z,58.00
2018-01-25T12:50:23.908Z,58.30
2018-01-25T12:52:51.365Z,58.50
2018-01-25T12:55:18.818Z,58.60
2018-01-25T12:57:46.289Z,58.60
2018-01-25T13:00:13.731Z,58.70
2018-01-25T13:02:41.189Z,59.00
2018-01-25T13:05:08.642Z,59.10
2018-01-25T13:07:36.186Z,59.00
2018-01-25T13:10:03.558Z,59.10
2018-01-25T13:12:31.018Z,59.10
2018-01-25T13:14:59.234Z,59.30
2018-01-25T13:17:27.461Z,59.60
2018-01-25T13:19:54.904Z,59.00
2018-01-25T13:22:22.357Z,59.10
2018-01-25T13:24:49.805Z,59.20
2018-01-25T13:27:17.253Z,59.50
2018-01-25T13:29:45.481Z,59.60
2018-01-25T13:32:18.710Z,59.60
2018-01-25T13:34:46.929Z,59.50
2018-01-25T13:37:14.381Z,59.40
2018-01-25T13:39:41.842Z,59.50
2018-01-25T13:42:09.306Z,59.70
2018-01-25T13:44:36.773Z,59.90
2018-01-25T13:47:04.233Z,60.20
2018-01-25T13:49:32.532Z,60.40
2018-01-25T13:51:59.993Z,60.60
2018-01-25T13:54:27.452Z,60.70
2018-01-25T13:56:54.897Z,60.90
2018-01-25T13:59:22.490Z,61.10
2018-01-25T14:01:49.953Z,61.20
2018-01-25T14:04:17.413Z,61.20
2018-01-25T14:06:44.862Z,61.20
2018-01-25T14:09:13.110Z,60.50
2018-01-25T14:11:40.609Z,60.50
2018-01-25T14:14:08.830Z,60.50
2018-01-25T14:16:36.324Z,60.50
2018-01-25T14:19:03.769Z,60.90
2018-01-25T14:21:31.995Z,61.30
2018-01-25T14:23:59.489Z,60.70
2018-01-25T14:26:26.945Z,61.00
2018-01-25T14:28:54.397Z,61.00
2018-01-25T14:31:21.857Z,61.10
2018-01-25T14:33:49.347Z,61.20
2018-01-25T14:36:17.531Z,61.20
2018-01-25T14:38:44.980Z,61.20
2018-01-25T14:41:12.436Z,61.30
2018-01-25T14:43:39.896Z,61.50
2018-01-25T14:46:08.117Z,61.80
2018-01-25T14:48:35.570Z,61.70
2018-01-25T14:51:03.036Z,61.70
2018-01-25T14:53:30.513Z,61.90
2018-01-25T14:55:57.982Z,62.00
2018-01-25T14:58:26.223Z,62.00
2018-01-25T15:00:53.673Z,61.90
2018-01-25T15:03:21.293Z,61.90
2018-01-25T15:05:48.601Z,61.80
2018-01-25T15:08:16.061Z,61.90
2018-01-25T15:10:43.532Z,61.80
2018-01-25T15:13:10.997Z,61.80
2018-01-25T15:15:38.452Z,61.90
2018-01-25T15:18:05.905Z,61.80
2018-01-25T15:20:33.361Z,62.00
2018-01-25T15:23:00.821Z,62.20
2018-01-25T15:25:33.852Z,62.40
2018-01-25T15:28:01.331Z,62.30
2018-01-25T15:30:28.788Z,62.40
2018-01-25T15:32:57.046Z,62.30
2018-01-25T15:35:24.514Z,62.40
2018-01-25T15:37:51.973Z,62.50
2018-01-25T15:40:19.430Z,62.70
2018-01-25T15:42:46.881Z,62.70
2018-01-25T15:45:14.662Z,62.80
2018-01-25T15:47:41.831Z,62.80
2018-01-25T15:50:09.296Z,63.00
2018-01-25T15:52:36.751Z,62.90
2018-01-25T15:55:04.263Z,63.00
2018-01-25T15:57:31.724Z,63.00
2018-01-25T15:59:59.217Z,63.00
2018-01-25T16:02:26.645Z,63.10
2018-01-25T16:04:54.101Z,63.00
2018-01-25T16:07:21.565Z,63.00
2018-01-25T16:09:49.016Z,62.90
2018-01-25T16:12:16.481Z,63.10
2018-01-25T16:14:43.936Z,63.20
2018-01-25T16:17:11.390Z,63.10
2018-01-25T16:19:38.869Z,63.30
2018-01-25T16:22:06.331Z,63.40
2018-01-25T16:24:33.802Z,63.30
2018-01-25T16:27:01.253Z,63.40
2018-01-25T16:29:28.705Z,63.40
2018-01-25T16:31:56.937Z,63.40
2018-01-25T16:34:24.399Z,63.40
2018-01-25T16:36:51.871Z,63.10
2018-01-25T16:39:19.350Z,63.20
2018-01-25T16:41:46.807Z,63.50
2018-01-25T16:44:14.253Z,63.60
2018-01-25T16:46:41.709Z,63.50
2018-01-25T16:49:09.157Z,63.50
2018-01-25T16:51:36.619Z,63.50
2018-01-25T16:54:04.064Z,63.50
2018-01-25T16:56:31.526Z,63.40
2018-01-25T16:58:58.990Z,63.30
2018-01-25T17:01:26.440Z,63.40
2018-01-25T17:03:53.881Z,63.50
2018-01-25T17:06:21.354Z,63.50
2018-01-25T17:08:48.801Z,63.50
2018-01-25T17:11:16.272Z,63.50
2018-01-25T17:13:43.733Z,63.50
2018-01-25T17:16:11.188Z,63.50
2018-01-25T17:18:38.660Z,63.50
2018-01-25T17:21:06.133Z,63.50
2018-01-25T17:23:33.619Z,63.50
2018-01-25T17:26:01.060Z,63.60
2018-01-25T17:28:28.520Z,63.70
2018-01-25T17:30:55.990Z,63.70
2018-01-25T17:33:23.454Z,63.70
2018-01-25T17:35:51.673Z,63.60
2018-01-25T17:38:19.133Z,63.60
2018-01-25T17:40:46.579Z,63.70
2018-01-25T17:43:14.803Z,63.90
2018-01-25T17:45:42.250Z,63.80
2018-01-25T17:48:09.709Z,63.80
2018-01-25T17:50:37.168Z,63.80
2018-01-25T17:53:04.629Z,63.70
2018-01-25T17:55:32.085Z,63.70
2018-01-25T17:57:59.553Z,63.70
2018-01-25T18:00:27.009Z,63.70
2018-01-25T18:02:54.465Z,63.90
2018-01-25T18:05:21.910Z,63.80
2018-01-25T18:07:49.369Z,64.00
2018-01-25T18:10:16.837Z,63.80
2018-01-25T18:12:44.325Z,63.80
2018-01-25T18:15:11.809Z,63.80
2018-01-25T18:17:39.269Z,63.70
2018-01-25T18:20:06.728Z,63.80
2018-01-25T18:22:34.177Z,63.80
2018-01-25T18:25:01.633Z,63.70
2018-01-25T18:27:29.093Z,63.80
2018-01-25T18:29:56.565Z,63.80
2018-01-25T18:32:24.021Z,63.70
2018-01-25T18:34:51.480Z,63.80
2018-01-25T18:37:18.950Z,63.70
2018-01-25T18:39:46.402Z,63.80
2018-01-25T18:42:13.853Z,63.90
2018-01-25T18:44:41.312Z,63.90
2018-01-25T18:47:08.765Z,63.70
2018-01-25T18:49:36.221Z,63.60
2018-01-25T18:52:03.693Z,63.90
2018-01-25T18:54:31.154Z,63.90
2018-01-25T18:56:58.614Z,63.90
2018-01-25T18:59:26.829Z,63.80
2018-01-25T19:01:55.049Z,63.80
2018-01-25T19:04:22.505Z,63.80
2018-01-25T19:06:49.966Z,63.80
2018-01-25T19:09:18.188Z,63.90
2018-01-25T19:11:45.645Z,63.90
2018-01-25T19:14:13.115Z,63.80
2018-01-25T19:16:40.590Z,63.80
2018-01-25T19:19:08.060Z,64.00
2018-01-25T19:21:35.505Z,64.10
2018-01-25T19:24:02.986Z,63.90
2018-01-25T19:26:30.460Z,64.00
2018-01-25T19:28:57.918Z,63.90
2018-01-25T19:31:25.378Z,63.90
2018-01-25T19:33:52.830Z,64.00
2018-01-25T19:36:20.287Z,63.90
2018-01-25T19:38:47.749Z,63.90
2018-01-25T19:41:15.213Z,63.90
2018-01-25T19:43:43.445Z,63.90
2018-01-25T19:46:10.917Z,63.70
2018-01-25T19:48:38.442Z,63.90
2018-01-25T19:51:05.899Z,64.00
2018-01-25T19:53:33.349Z,64.20
2018-01-25T19:56:00.833Z,64.20
2018-01-25T19:58:28.328Z,64.10
2018-01-25T20:00:55.808Z,64.10
2018-01-25T20:03:24.017Z,64.10
2018-01-25T20:05:51.502Z,64.10
2018-01-25T20:08:19.013Z,64.10
2018-01-25T20:10:47.318Z,64.30
2018-01-25T20:13:15.536Z,64.30
2018-01-25T20:15:43.761Z,64.20
2018-01-25T20:18:11.235Z,64.20
2018-01-25T20:20:38.718Z,64.30
2018-01-25T20:23:06.177Z,64.20
2018-01-25T20:25:33.636Z,64.20
2018-01-25T20:28:01.105Z,64.10
2018-01-25T20:30:28.554Z,64.20
2018-01-25T20:32:56.006Z,64.10
2018-01-25T20:35:23.461Z,64.10
2018-01-25T20:37:50.925Z,64.00
2018-01-25T20:40:18.376Z,64.10
2018-01-25T20:42:45.830Z,63.90
2018-01-25T20:45:13.298Z,64.10
2018-01-25T20:47:40.753Z,64.20
2018-01-25T20:50:08.287Z,64.10
2018-01-25T20:52:35.731Z,64.10
2018-01-25T20:55:03.174Z,64.20
2018-01-25T20:57:30.639Z,64.20
2018-01-25T20:59:58.141Z,64.20
2018-01-25T21:02:25.615Z,64.20
2018-01-25T21:04:53.831Z,64.30
2018-01-25T21:07:21.315Z,64.20
2018-01-25T21:09:48.756Z,64.30
2018-01-25T21:12:16.223Z,64.20
2018-01-25T21:14:43.684Z,64.10
2018-01-25T21:17:11.137Z,64.10
2018-01-25T21:19:38.596Z,64.10
2018-01-25T21:22:06.054Z,64.10
2018-01-25T21:24:33.515Z,64.10
2018-01-25T21:27:00.965Z,64.30
2018-01-25T21:29:28.429Z,64.20
2018-01-25T21:31:55.882Z,64.20
2018-01-25T21:34:23.342Z,64.30
2018-01-25T21:36:50.796Z,64.40
2018-01-25T21:39:18.265Z,64.40
2018-01-25T21:41:45.709Z,64.30
2018-01-25T21:44:13.178Z,64.10
2018-01-25T21:46:41.394Z,64.00
2018-01-25T21:49:08.865Z,64.00
2018-01-25T21:51:36.319Z,64.10
2018-01-25T21:54:03.771Z,64.00
2018-01-25T21:56:31.230Z,64.90
2018-01-25T21:58:58.693Z,64.30
2018-01-25T22:01:26.160Z,65.00
2018-01-25T22:03:53.616Z,64.20
2018-01-25T22:06:21.072Z,64.40
2018-01-25T22:08:49.333Z,64.20
2018-01-25T22:11:16.891Z,64.10
2018-01-25T22:16:18.892Z,64.10
2018-01-25T22:18:46.355Z,64.10
2018-01-25T22:21:13.805Z,64.10
2018-01-25T22:23:41.265Z,64.10
2018-01-25T22:26:08.721Z,64.10
2018-01-25T22:28:36.213Z,64.20
2018-01-25T22:31:03.669Z,64.30
2018-01-25T22:33:31.901Z,64.30
2018-01-25T22:35:59.361Z,64.30
2018-01-25T22:38:26.804Z,64.30
2018-01-25T22:40:54.262Z,64.10
2018-01-25T22:43:21.719Z,64.10
2018-01-25T22:45:49.945Z,64.30
2018-01-25T22:48:17.407Z,64.20
2018-01-25T22:50:45.631Z,64.10
2018-01-25T22:53:13.089Z,64.00
2018-01-25T22:55:41.318Z,64.10
2018-01-25T22:58:08.781Z,64.00
2018-01-25T23:00:39.913Z,64.20
2018-01-25T23:03:07.366Z,64.10
2018-01-25T23:05:34.838Z,64.00
2018-01-25T23:08:02.294Z,64.00
2018-01-25T23:10:29.759Z,64.10
2018-01-25T23:12:57.217Z,64.20
2018-01-25T23:15:24.667Z,64.20
2018-01-25T23:17:52.135Z,64.10
2018-01-25T23:20:20.369Z,64.10
2018-01-25T23:22:47.825Z,64.10
2018-01-25T23:25:15.287Z,64.20
2018-01-25T23:27:42.745Z,64.30
2018-01-25T23:30:10.231Z,64.20
2018-01-25T23:32:37.694Z,64.20
2018-01-25T23:35:05.158Z,64.20
2018-01-25T23:37:33.385Z,64.10
2018-01-25T23:40:00.839Z,64.10
2018-01-25T23:42:28.323Z,64.10
2018-01-25T23:44:55.778Z,64.20
2018-01-25T23:47:23.250Z,64.10
2018-01-25T23:49:50.709Z,64.30
2018-01-25T23:52:18.188Z,64.10
2018-01-25T23:54:46.404Z,64.10
2018-01-25T23:57:13.889Z,64.10
2018-01-25T23:59:41.343Z,64.10
